Honolulu, HI (96850)

6:31 PM HST on September 01, 2015 (GMT -1000)
Pacific Heights | | Change Station
CLOSE
Current Station
Personal Weather Station
Location: Honolulu, HI
Elevation: 528 ft
Nearby Weather Stations

Elev 528 ft 21.33 °N, 157.84 °W | Updated 5 seconds ago

Scattered Clouds
Scattered Clouds
84.0 °F
Feels Like 91 °F
N
0.0
Wind Variable Wind from WSW
Gusts 0.0 mph

Today
High -- | Low -- °F
--% Chance of Precip.
Yesterday
High -- | Low -- °F
Precip. -- in
6:14 AM 6:47 PM
Waning Gibbous, 83% visible
Pressure 29.78 in
Visibility 10.0 miles
Clouds Few 3500 ft
Scattered Clouds 4200 ft
Scattered Clouds 5500 ft
Heat Index 91 °F
Dew Point 74 °F
Humidity 73%
Rainfall 0.02 in
Snow Depth Not available.
UV 0 out of 12
Pollen Not available.
Air Quality Not available.
Flu Activity Not available.
METAR PHNL 020353Z 34011G18KT 10SM FEW035 SCT042 SCT055 31/23 A2978 RMK AO2 SLP085 T03060228
Pressure 29.78 in
Visibility 10.0 miles
Clouds Few 3500 ft
Scattered Clouds 4200 ft
Scattered Clouds 5500 ft
Heat Index 91 °F
Dew Point 74 °F
Humidity 73%
Rainfall 0.02 in
Snow Depth Not available.
UV 0 out of 12
Pollen Not available.
Air Quality Not available.
Flu Activity Not available.
METAR PHNL 020353Z 34011G18KT 10SM FEW035 SCT042 SCT055 31/23 A2978 RMK AO2 SLP085 T03060228

10-Day Weather Forecast

×

Almanac

Astronomy

Sep. 01, 2015 Rise Set
Actual Time
Civil Twilight
Nautical Twilight
Astronomical Twilight
Moon
Length of Visible Light
Length of Day
Tomorrow will be .
, % of the Moon is Illuminated

Today's Extremes

State Highs State Lows

Community

WunderPhotos

Upload Photos

1,851,695 photos uploaded!

WunderBlogs® & News

Nearby

Air Quality

  Air Quality AQ Index Pollutant
Not available.

Snow Depth

Station Depth Elevation

Earthquake Activity

City Distance Mag. Time & Date
Minimum magnitude displayed is 2.5.

Coastal Water Temperatures

Place Temperature

Stations

Nearby Weather Stations

Station Location Temp. Windchill Dew Point Humidity Wind Precip. Elev Updated Type